createdAt,value
2023-06-29T00:00:27.920Z,0.50
2023-06-29T00:01:27.918Z,0.50
2023-06-29T00:02:27.925Z,0.41
2023-06-29T00:03:27.916Z,0.37
2023-06-29T00:04:27.902Z,0.35
2023-06-29T00:05:27.868Z,0.35
2023-06-29T00:06:27.869Z,0.38
2023-06-29T00:07:28.071Z,0.40
2023-06-29T00:08:27.850Z,0.45
2023-06-29T00:09:27.837Z,0.50
2023-06-29T00:10:27.841Z,0.50
2023-06-29T00:11:27.829Z,0.50
2023-06-29T00:12:27.838Z,0.50
2023-06-29T00:13:27.810Z,0.50
2023-06-29T00:14:27.823Z,0.50
2023-06-29T00:15:27.799Z,0.50
2023-06-29T00:16:27.854Z,0.51
2023-06-29T00:17:27.803Z,0.50
2023-06-29T00:18:27.779Z,0.50
2023-06-29T00:19:27.809Z,0.51
2023-06-29T00:20:27.819Z,0.50
2023-06-29T00:21:27.744Z,0.50
2023-06-29T00:22:27.734Z,0.50
2023-06-29T00:23:27.732Z,0.51
2023-06-29T00:24:27.746Z,0.50
2023-06-29T00:25:27.747Z,0.51
2023-06-29T00:26:27.761Z,0.50
2023-06-29T00:27:27.778Z,0.50
2023-06-29T00:28:27.835Z,0.51
2023-06-29T00:29:27.865Z,0.51
2023-06-29T00:30:27.819Z,0.50
2023-06-29T00:31:27.935Z,0.50
2023-06-29T00:32:27.912Z,0.50
2023-06-29T00:33:27.864Z,0.50
2023-06-29T00:34:27.871Z,0.50
2023-06-29T00:35:27.886Z,0.50
2023-06-29T00:36:27.894Z,0.50
2023-06-29T00:37:27.909Z,0.51
2023-06-29T00:38:27.923Z,0.50
2023-06-29T00:39:27.936Z,0.51
2023-06-29T00:40:27.942Z,0.51
2023-06-29T00:41:27.954Z,0.51
2023-06-29T00:42:27.958Z,0.51
2023-06-29T00:43:27.962Z,0.52
2023-06-29T00:44:28.004Z,0.51
2023-06-29T00:45:27.990Z,0.50
2023-06-29T00:46:28.011Z,0.50
2023-06-29T00:47:28.037Z,0.51
2023-06-29T00:48:28.025Z,0.51
2023-06-29T00:49:28.027Z,0.51
2023-06-29T00:50:28.064Z,0.51
2023-06-29T00:51:28.057Z,0.51
2023-06-29T00:52:28.069Z,0.51
2023-06-29T00:53:28.081Z,0.51
2023-06-29T00:54:28.089Z,0.51
2023-06-29T00:55:28.110Z,0.50
2023-06-29T00:56:28.113Z,0.50
2023-06-29T00:57:28.136Z,0.51
2023-06-29T00:58:28.138Z,0.51
2023-06-29T00:59:28.150Z,0.51
2023-06-29T01:00:28.297Z,0.50
2023-06-29T01:01:28.218Z,0.50
2023-06-29T01:02:28.268Z,0.51
2023-06-29T01:03:28.274Z,0.50
2023-06-29T01:04:28.215Z,0.51
2023-06-29T01:05:28.229Z,0.51
2023-06-29T01:06:28.246Z,0.50
2023-06-29T01:07:28.336Z,0.51
2023-06-29T01:08:28.266Z,0.51
2023-06-29T01:09:29.221Z,0.50
2023-06-29T01:10:28.312Z,0.51
2023-06-29T01:11:28.309Z,0.51
2023-06-29T01:12:28.316Z,0.50
2023-06-29T01:13:28.333Z,0.52
2023-06-29T01:14:28.356Z,0.50
2023-06-29T01:15:28.369Z,0.51
2023-06-29T01:16:28.440Z,0.52
2023-06-29T01:17:28.444Z,0.51
2023-06-29T01:18:28.411Z,0.51
2023-06-29T01:19:28.424Z,0.51
2023-06-29T01:20:28.437Z,0.51
2023-06-29T01:21:28.461Z,0.51
2023-06-29T01:22:28.486Z,0.51
2023-06-29T01:23:28.493Z,0.51
2023-06-29T01:24:28.506Z,0.50
2023-06-29T01:25:28.531Z,0.50
2023-06-29T01:26:28.529Z,0.51
2023-06-29T01:27:28.545Z,0.51
2023-06-29T01:28:28.569Z,0.51
2023-06-29T01:29:28.587Z,0.51
2023-06-29T01:30:28.601Z,0.51
2023-06-29T01:31:28.631Z,0.51
2023-06-29T01:32:28.637Z,0.50
2023-06-29T01:33:28.621Z,0.50
2023-06-29T01:34:28.629Z,0.50
2023-06-29T01:35:28.648Z,0.50
2023-06-29T01:36:28.673Z,0.51
2023-06-29T01:37:28.692Z,0.51
2023-06-29T01:38:28.671Z,0.51
2023-06-29T01:39:28.692Z,0.51
2023-06-29T01:40:28.701Z,0.51
2023-06-29T01:41:28.718Z,0.51
2023-06-29T01:42:28.736Z,0.51
2023-06-29T01:43:28.797Z,0.51
2023-06-29T01:44:28.764Z,0.52
2023-06-29T01:45:28.790Z,0.51
2023-06-29T01:46:28.849Z,0.51
2023-06-29T01:47:28.837Z,0.51
2023-06-29T01:48:28.815Z,0.51
2023-06-29T01:49:28.802Z,0.50
2023-06-29T01:50:28.817Z,0.51
2023-06-29T01:51:28.833Z,0.51
2023-06-29T01:52:28.898Z,0.52
2023-06-29T01:53:29.816Z,0.51
2023-06-29T01:54:28.850Z,0.52
2023-06-29T01:55:28.847Z,0.50
2023-06-29T01:56:28.833Z,0.51
2023-06-29T01:57:28.864Z,0.51
2023-06-29T01:58:28.853Z,0.51
2023-06-29T01:59:28.815Z,0.52
2023-06-29T02:00:28.827Z,0.51
2023-06-29T02:01:28.819Z,0.50
2023-06-29T02:02:28.901Z,0.51
2023-06-29T02:03:28.843Z,0.52
2023-06-29T02:04:28.805Z,0.50
2023-06-29T02:05:28.777Z,0.51
2023-06-29T02:06:28.774Z,0.50
2023-06-29T02:07:28.910Z,0.51
2023-06-29T02:08:28.767Z,0.51
2023-06-29T02:09:28.744Z,0.51
2023-06-29T02:10:28.728Z,0.51
2023-06-29T02:11:28.725Z,0.50
2023-06-29T02:12:28.791Z,0.51
2023-06-29T02:13:28.723Z,0.50
2023-06-29T02:14:28.714Z,0.52
2023-06-29T02:15:28.702Z,0.52
2023-06-29T02:16:28.724Z,0.50
2023-06-29T02:17:28.762Z,0.51
2023-06-29T02:18:28.689Z,0.51
2023-06-29T02:19:28.676Z,0.51
2023-06-29T02:20:28.724Z,0.50
2023-06-29T02:21:28.662Z,0.51
2023-06-29T02:22:28.672Z,0.51
2023-06-29T02:23:28.651Z,0.51
2023-06-29T02:24:28.645Z,0.51
2023-06-29T02:25:28.628Z,0.50
2023-06-29T02:26:28.622Z,0.51
2023-06-29T02:27:28.639Z,0.50
2023-06-29T02:28:28.668Z,0.51
2023-06-29T02:29:28.595Z,0.51
2023-06-29T02:30:28.586Z,0.51
2023-06-29T02:31:28.656Z,0.51
2023-06-29T02:32:28.607Z,0.51
2023-06-29T02:33:28.573Z,0.51
2023-06-29T02:34:28.569Z,0.51
2023-06-29T02:35:28.571Z,0.50
2023-06-29T02:36:28.609Z,0.51
2023-06-29T02:37:28.543Z,0.52
2023-06-29T02:38:28.530Z,0.51
2023-06-29T02:39:28.525Z,0.51
2023-06-29T02:40:28.511Z,0.51
2023-06-29T02:41:28.503Z,0.50
2023-06-29T02:42:28.533Z,0.51
2023-06-29T02:43:28.494Z,0.52
2023-06-29T02:44:28.488Z,0.51
2023-06-29T02:45:28.476Z,0.52
2023-06-29T02:46:28.528Z,0.50
2023-06-29T02:47:28.504Z,0.51
2023-06-29T02:48:28.476Z,0.52
2023-06-29T02:49:28.451Z,0.51
2023-06-29T02:50:28.442Z,0.52
2023-06-29T02:51:28.426Z,0.51
2023-06-29T02:52:28.444Z,0.51
2023-06-29T02:53:28.440Z,0.52
2023-06-29T02:54:28.406Z,0.51
2023-06-29T02:55:28.419Z,0.51
2023-06-29T02:56:28.438Z,0.51
2023-06-29T02:57:28.465Z,0.51
2023-06-29T02:58:28.483Z,0.50
2023-06-29T02:59:28.517Z,0.51
2023-06-29T03:00:28.530Z,0.50
2023-06-29T03:01:28.584Z,0.52
2023-06-29T03:02:28.607Z,0.51
2023-06-29T03:03:28.766Z,0.52
2023-06-29T03:04:28.626Z,0.52
2023-06-29T03:05:28.644Z,0.51
2023-06-29T03:06:28.653Z,0.52
2023-06-29T03:07:28.734Z,0.50
2023-06-29T03:08:28.715Z,0.51
2023-06-29T03:09:28.715Z,0.52
2023-06-29T03:10:28.752Z,0.52
2023-06-29T03:11:28.745Z,0.53
2023-06-29T03:12:28.761Z,0.52
2023-06-29T03:13:28.777Z,0.51
2023-06-29T03:14:28.870Z,0.50
2023-06-29T03:15:28.814Z,0.50
2023-06-29T03:16:28.878Z,0.50
2023-06-29T03:17:28.986Z,0.51
2023-06-29T03:18:28.881Z,0.51
2023-06-29T03:19:28.928Z,0.50
2023-06-29T03:20:28.927Z,0.51
2023-06-29T03:21:28.949Z,0.50
2023-06-29T03:22:28.964Z,0.51
2023-06-29T03:23:29.003Z,0.50
2023-06-29T03:24:29.032Z,0.51
2023-06-29T03:25:29.054Z,0.51
2023-06-29T03:26:29.067Z,0.51
2023-06-29T03:27:29.077Z,0.51
2023-06-29T03:28:29.102Z,0.51
2023-06-29T03:29:29.150Z,0.51
2023-06-29T03:30:29.164Z,0.51
2023-06-29T03:31:29.199Z,0.51
2023-06-29T03:32:29.239Z,0.51
2023-06-29T03:33:29.223Z,0.52
2023-06-29T03:34:29.354Z,0.51
2023-06-29T03:35:29.282Z,0.50
2023-06-29T03:36:29.299Z,0.52
2023-06-29T03:37:29.314Z,0.50
2023-06-29T03:38:29.341Z,0.51
2023-06-29T03:39:29.357Z,0.51
2023-06-29T03:40:29.416Z,0.51
2023-06-29T03:41:29.418Z,0.50
2023-06-29T03:42:29.439Z,0.51
2023-06-29T03:43:29.462Z,0.51
2023-06-29T03:44:29.492Z,0.51
2023-06-29T03:45:29.537Z,0.51
2023-06-29T03:46:29.548Z,0.51
2023-06-29T03:47:29.679Z,0.51
2023-06-29T03:48:29.712Z,0.51
2023-06-29T03:49:29.651Z,0.51
2023-06-29T03:50:29.631Z,0.52
2023-06-29T03:51:29.658Z,0.51
2023-06-29T03:52:29.686Z,0.51
2023-06-29T03:53:29.764Z,0.51
2023-06-29T03:54:29.729Z,0.51
2023-06-29T03:55:29.752Z,0.51
2023-06-29T03:56:29.822Z,0.51
2023-06-29T03:57:29.809Z,0.52
2023-06-29T03:58:29.839Z,0.52
2023-06-29T03:59:29.866Z,0.52
2023-06-29T04:00:29.896Z,0.51
2023-06-29T04:01:29.953Z,0.52
2023-06-29T04:02:30.061Z,0.51
2023-06-29T04:03:30.049Z,0.51
2023-06-29T04:04:30.011Z,0.51
2023-06-29T04:05:30.043Z,0.52
2023-06-29T04:06:30.079Z,0.51
2023-06-29T04:07:30.221Z,0.50
2023-06-29T04:08:30.126Z,0.51
2023-06-29T04:09:30.169Z,0.52
2023-06-29T04:10:30.170Z,0.51
2023-06-29T04:11:30.200Z,0.51
2023-06-29T04:12:30.320Z,0.51
2023-06-29T04:13:30.241Z,0.51
2023-06-29T04:14:30.276Z,0.51
2023-06-29T04:15:30.302Z,0.52
2023-06-29T04:16:30.381Z,0.51
2023-06-29T04:17:30.364Z,0.51
2023-06-29T04:18:30.379Z,0.52
2023-06-29T04:19:30.390Z,0.50
2023-06-29T04:20:30.412Z,0.51
2023-06-29T04:21:30.453Z,0.52
2023-06-29T04:22:30.442Z,0.51
2023-06-29T04:23:30.477Z,0.51
2023-06-29T04:24:30.490Z,0.53
2023-06-29T04:25:30.512Z,0.53
2023-06-29T04:26:30.571Z,0.52
2023-06-29T04:27:33.151Z,0.52
2023-06-29T04:28:30.584Z,0.52
2023-06-29T04:29:30.543Z,0.52
2023-06-29T04:30:30.568Z,0.52
2023-06-29T04:31:30.537Z,0.52
2023-06-29T04:32:30.575Z,0.53
2023-06-29T04:33:30.547Z,0.51
2023-06-29T04:34:30.513Z,0.52
2023-06-29T04:35:30.499Z,0.51
2023-06-29T04:36:30.495Z,0.51
2023-06-29T04:37:30.498Z,0.51
2023-06-29T04:38:30.495Z,0.51
2023-06-29T04:39:30.493Z,0.51
2023-06-29T04:40:30.460Z,0.52
2023-06-29T04:41:30.458Z,0.50
2023-06-29T04:42:30.456Z,0.52
2023-06-29T04:43:30.442Z,0.52
2023-06-29T04:44:30.459Z,0.51
2023-06-29T04:45:30.447Z,0.51
2023-06-29T04:46:30.499Z,0.51
2023-06-29T04:47:30.489Z,0.51
2023-06-29T04:48:30.447Z,0.51
2023-06-29T04:49:30.473Z,0.52
2023-06-29T04:50:30.390Z,0.51
2023-06-29T04:51:30.431Z,0.51
2023-06-29T04:52:30.384Z,0.51
2023-06-29T04:53:30.396Z,0.51
2023-06-29T04:54:30.385Z,0.51
2023-06-29T04:55:30.371Z,0.51
2023-06-29T04:56:30.450Z,0.51
2023-06-29T04:57:30.349Z,0.52
2023-06-29T04:58:30.372Z,0.51
2023-06-29T04:59:30.348Z,0.51
2023-06-29T05:00:30.353Z,0.52
2023-06-29T05:01:30.341Z,0.52
2023-06-29T05:02:30.467Z,0.51
2023-06-29T05:03:30.379Z,0.51
2023-06-29T05:04:30.502Z,0.52
2023-06-29T05:05:30.328Z,0.51
2023-06-29T05:06:30.362Z,0.51
2023-06-29T05:07:30.492Z,0.51
2023-06-29T05:08:30.436Z,0.51
2023-06-29T05:09:30.473Z,0.51
2023-06-29T05:10:30.470Z,0.51
2023-06-29T05:11:32.048Z,0.52
2023-06-29T05:12:30.493Z,0.53
2023-06-29T05:13:30.507Z,0.52
2023-06-29T05:14:30.465Z,0.52
2023-06-29T05:15:30.498Z,0.52
2023-06-29T05:16:30.575Z,0.51
2023-06-29T05:17:31.475Z,0.50
2023-06-29T05:18:30.491Z,0.50
2023-06-29T05:19:30.435Z,0.51
2023-06-29T05:20:30.428Z,0.51
2023-06-29T05:21:30.889Z,0.52
2023-06-29T05:22:30.408Z,0.51
2023-06-29T05:23:30.407Z,0.51
2023-06-29T05:24:30.404Z,0.51
2023-06-29T05:25:30.856Z,0.49
2023-06-29T05:26:30.395Z,0.51
2023-06-29T05:27:30.367Z,0.60
2023-06-29T05:28:30.398Z,0.52
2023-06-29T05:29:30.359Z,0.50
2023-06-29T05:30:30.380Z,0.51
2023-06-29T05:31:30.379Z,0.50
2023-06-29T05:32:30.425Z,0.50
2023-06-29T05:33:30.337Z,0.50
2023-06-29T05:34:30.333Z,0.50
2023-06-29T05:35:30.382Z,0.50
2023-06-29T05:36:30.336Z,0.51
2023-06-29T05:37:30.294Z,0.50
2023-06-29T05:38:30.304Z,0.50
2023-06-29T05:39:30.289Z,0.51
2023-06-29T05:40:30.276Z,0.51
2023-06-29T05:41:30.262Z,0.53
2023-06-29T05:42:30.266Z,0.52
2023-06-29T05:43:30.269Z,0.50
2023-06-29T05:44:30.259Z,0.59
2023-06-29T05:45:30.239Z,0.56
2023-06-29T05:46:30.364Z,0.53
2023-06-29T05:47:30.269Z,0.52
2023-06-29T05:48:30.358Z,0.50
2023-06-29T05:49:30.205Z,0.53
2023-06-29T05:50:30.214Z,0.56
2023-06-29T05:51:30.248Z,0.57
2023-06-29T05:52:30.292Z,0.55
2023-06-29T05:53:30.343Z,0.50
2023-06-29T05:54:30.365Z,0.50
2023-06-29T05:55:30.392Z,0.53
2023-06-29T05:56:30.423Z,0.54
2023-06-29T05:57:30.460Z,0.50
2023-06-29T05:58:30.837Z,0.53
2023-06-29T05:59:30.505Z,0.55
2023-06-29T06:00:30.624Z,0.57
2023-06-29T06:01:30.680Z,0.55
2023-06-29T06:02:30.999Z,0.56
2023-06-29T06:03:30.895Z,0.58
2023-06-29T06:04:30.770Z,0.59
2023-06-29T06:05:30.878Z,0.57
2023-06-29T06:06:30.699Z,0.61
2023-06-29T06:07:30.782Z,0.63
2023-06-29T06:08:30.678Z,0.63
2023-06-29T06:09:30.716Z,0.68
2023-06-29T06:10:31.191Z,0.67
2023-06-29T06:11:31.700Z,0.67
2023-06-29T06:12:30.713Z,0.67
2023-06-29T06:13:30.721Z,0.71
2023-06-29T06:14:30.776Z,0.71
2023-06-29T06:15:30.843Z,0.71
2023-06-29T06:16:30.902Z,0.76
2023-06-29T06:17:30.931Z,0.76
2023-06-29T06:18:30.953Z,0.80
2023-06-29T06:19:31.004Z,0.79
2023-06-29T06:20:32.076Z,0.78
2023-06-29T06:21:31.090Z,0.77
2023-06-29T06:22:31.162Z,0.77
2023-06-29T06:23:33.998Z,0.77
2023-06-29T06:24:31.202Z,0.77
2023-06-29T06:25:31.405Z,0.77
2023-06-29T06:26:31.360Z,0.77
2023-06-29T06:27:31.253Z,0.79
2023-06-29T06:28:31.148Z,0.83
2023-06-29T06:29:31.163Z,0.82
2023-06-29T06:30:31.137Z,0.82
2023-06-29T06:31:34.783Z,0.83
2023-06-29T06:32:31.173Z,0.83
2023-06-29T06:33:31.110Z,0.80
2023-06-29T06:34:31.099Z,0.80
2023-06-29T06:35:31.087Z,0.84
2023-06-29T06:36:31.116Z,0.84
2023-06-29T06:37:31.072Z,0.83
2023-06-29T06:38:48.388Z,0.79
2023-06-29T06:39:31.055Z,0.77
2023-06-29T06:40:31.057Z,0.71
2023-06-29T06:41:31.037Z,0.65
2023-06-29T06:42:31.033Z,0.67
2023-06-29T06:43:31.355Z,0.69
2023-06-29T06:44:31.023Z,0.71
2023-06-29T06:45:31.012Z,0.72
2023-06-29T06:46:31.028Z,0.73
2023-06-29T06:47:31.123Z,0.71
2023-06-29T06:48:31.344Z,0.71
2023-06-29T06:49:31.004Z,0.71
2023-06-29T06:50:30.986Z,0.68
2023-06-29T06:51:30.970Z,0.65
2023-06-29T06:52:31.015Z,0.65
2023-06-29T06:53:30.953Z,0.62
2023-06-29T06:54:30.944Z,0.61
2023-06-29T06:55:30.975Z,0.59
2023-06-29T06:56:30.934Z,0.57
2023-06-29T06:57:30.935Z,0.57
2023-06-29T06:58:31.353Z,0.56
2023-06-29T06:59:30.920Z,0.57
2023-06-29T07:00:31.847Z,0.56
2023-06-29T07:01:31.510Z,0.55
2023-06-29T07:02:31.002Z,0.54
2023-06-29T07:03:30.911Z,0.52
2023-06-29T07:04:30.880Z,0.52
2023-06-29T07:05:30.913Z,0.51
2023-06-29T07:06:31.350Z,0.50
2023-06-29T07:07:30.907Z,0.52
2023-06-29T07:08:31.119Z,0.52
2023-06-29T07:09:31.332Z,0.52
2023-06-29T07:10:30.827Z,0.52
2023-06-29T07:11:30.819Z,0.54
2023-06-29T07:12:30.840Z,0.53
2023-06-29T07:13:31.373Z,0.55
2023-06-29T07:14:30.939Z,0.54
2023-06-29T07:15:30.985Z,0.53
2023-06-29T07:16:31.104Z,0.54
2023-06-29T07:17:31.456Z,0.51
2023-06-29T07:18:31.355Z,0.52
2023-06-29T07:21:30.174Z,0.51
2023-06-29T07:24:30.205Z,0.51
2023-06-29T07:25:31.138Z,0.50
2023-06-29T07:26:31.170Z,0.51
2023-06-29T07:27:31.150Z,0.50
2023-06-29T07:28:31.400Z,0.51
2023-06-29T07:29:31.102Z,0.50
2023-06-29T07:30:31.138Z,0.52
2023-06-29T07:31:31.227Z,0.51
2023-06-29T07:32:31.110Z,0.51
2023-06-29T07:33:33.219Z,0.51
2023-06-29T07:34:31.076Z,0.51
2023-06-29T07:35:31.086Z,0.51
2023-06-29T07:36:31.330Z,0.51
2023-06-29T07:37:31.054Z,0.53
2023-06-29T07:38:31.434Z,0.49
2023-06-29T07:39:31.051Z,0.49
2023-06-29T07:40:31.418Z,0.50
2023-06-29T07:41:31.030Z,0.50
2023-06-29T07:42:39.560Z,0.51
2023-06-29T07:43:31.037Z,0.51
2023-06-29T07:44:31.404Z,0.52
2023-06-29T07:45:30.996Z,0.52
2023-06-29T07:46:30.990Z,0.50
2023-06-29T07:47:31.074Z,0.50
2023-06-29T07:48:31.220Z,0.53
2023-06-29T07:49:31.372Z,0.54
2023-06-29T07:50:30.959Z,0.63
2023-06-29T07:51:30.948Z,0.62
2023-06-29T07:52:30.939Z,0.65
2023-06-29T07:53:31.373Z,0.68
2023-06-29T07:54:31.375Z,0.74
2023-06-29T07:55:30.928Z,0.92
2023-06-29T07:59:29.896Z,0.94
2023-06-29T08:00:30.896Z,0.92
2023-06-29T08:01:31.167Z,0.91
2023-06-29T08:02:30.925Z,0.92
2023-06-29T08:03:30.923Z,0.88
2023-06-29T08:07:29.883Z,0.90
2023-06-29T08:08:30.931Z,0.91
2023-06-29T08:09:30.840Z,0.95
2023-06-29T08:10:30.836Z,1.02
2023-06-29T08:11:30.955Z,1.10
2023-06-29T08:12:30.837Z,1.05
2023-06-29T08:13:30.802Z,1.06
2023-06-29T08:14:30.798Z,1.11
2023-06-29T08:15:30.796Z,1.08
2023-06-29T08:16:30.810Z,0.96
2023-06-29T08:17:30.818Z,0.89
2023-06-29T08:18:30.822Z,0.76
2023-06-29T08:19:30.779Z,0.71
2023-06-29T08:20:30.769Z,0.73
2023-06-29T08:21:30.758Z,0.72
2023-06-29T08:22:30.748Z,0.69
2023-06-29T08:23:30.743Z,0.64
2023-06-29T08:24:30.893Z,0.59
2023-06-29T08:25:30.734Z,0.58
2023-06-29T08:26:30.729Z,0.62
2023-06-29T08:27:30.713Z,0.55
2023-06-29T08:28:30.725Z,0.60
2023-06-29T08:29:30.717Z,0.61
2023-06-29T08:30:30.692Z,0.59
2023-06-29T08:31:30.729Z,0.58
2023-06-29T08:32:30.706Z,0.60
2023-06-29T08:33:30.772Z,0.60
2023-06-29T08:34:30.665Z,0.63
2023-06-29T08:35:30.657Z,0.58
2023-06-29T08:36:30.923Z,0.53
2023-06-29T08:37:30.643Z,0.54
2023-06-29T08:38:30.892Z,0.56
2023-06-29T08:39:30.624Z,0.54
2023-06-29T08:40:30.617Z,0.52
2023-06-29T08:41:30.640Z,0.50
2023-06-29T08:42:30.613Z,0.49
2023-06-29T08:43:30.904Z,0.51
2023-06-29T08:44:30.613Z,0.50
2023-06-29T08:45:30.897Z,0.51
2023-06-29T08:46:30.618Z,0.51
2023-06-29T08:47:30.601Z,0.51
2023-06-29T08:48:30.969Z,0.51
2023-06-29T08:49:30.564Z,0.50
2023-06-29T08:50:30.552Z,0.51
2023-06-29T08:51:30.540Z,0.54
2023-06-29T08:52:30.555Z,0.55
2023-06-29T08:53:30.988Z,0.57
2023-06-29T08:54:30.610Z,0.58
2023-06-29T08:55:30.911Z,0.59
2023-06-29T08:56:30.682Z,0.63
2023-06-29T08:57:31.277Z,0.62
2023-06-29T08:58:30.898Z,0.61
2023-06-29T08:59:30.757Z,0.59
2023-06-29T09:00:30.828Z,0.62
2023-06-29T09:01:30.856Z,0.64
2023-06-29T09:02:30.937Z,0.63
2023-06-29T09:03:30.994Z,0.67
2023-06-29T09:04:30.883Z,0.67
2023-06-29T09:05:30.911Z,0.64
2023-06-29T09:06:30.944Z,0.63
2023-06-29T09:07:31.009Z,0.66
2023-06-29T09:08:31.429Z,0.67
2023-06-29T09:09:31.047Z,0.66
2023-06-29T09:10:31.046Z,0.61
2023-06-29T09:11:31.066Z,0.61
2023-06-29T09:12:31.091Z,0.63
2023-06-29T09:13:31.126Z,0.61
2023-06-29T09:14:31.195Z,0.59
2023-06-29T09:15:31.411Z,0.54
2023-06-29T09:16:31.335Z,0.53
2023-06-29T09:17:31.256Z,0.52
2023-06-29T09:18:31.267Z,0.53
2023-06-29T09:19:31.307Z,0.55
2023-06-29T09:20:31.415Z,0.53
2023-06-29T09:21:31.353Z,0.53
2023-06-29T09:22:31.377Z,0.50
2023-06-29T09:23:31.454Z,0.50
2023-06-29T09:24:31.435Z,0.51
2023-06-29T09:25:34.524Z,0.50
2023-06-29T09:26:31.578Z,0.50
2023-06-29T09:27:31.455Z,0.50
2023-06-29T09:28:31.438Z,0.48
2023-06-29T09:29:31.460Z,0.45
2023-06-29T09:30:31.467Z,0.43
2023-06-29T09:31:31.498Z,0.50
2023-06-29T09:32:31.488Z,0.52
2023-06-29T09:33:31.441Z,0.53
2023-06-29T09:34:31.405Z,0.52
2023-06-29T09:35:31.395Z,0.54
2023-06-29T09:36:31.415Z,0.55
2023-06-29T09:37:31.387Z,0.54
2023-06-29T09:38:31.413Z,0.57
2023-06-29T09:39:31.374Z,0.56
2023-06-29T09:40:31.400Z,0.56
2023-06-29T09:41:31.349Z,0.55
2023-06-29T09:42:31.383Z,0.57
2023-06-29T09:43:31.442Z,0.65
2023-06-29T09:44:31.331Z,0.62
2023-06-29T09:45:31.331Z,0.62
2023-06-29T09:46:31.348Z,0.64
2023-06-29T09:49:30.418Z,0.61
2023-06-29T09:50:31.439Z,0.62
2023-06-29T09:51:31.307Z,0.64
2023-06-29T09:52:31.312Z,0.68
2023-06-29T09:53:31.310Z,0.70
2023-06-29T09:54:31.420Z,0.73
2023-06-29T09:55:31.360Z,0.73
2023-06-29T09:56:31.263Z,0.74
2023-06-29T09:57:31.262Z,0.74
2023-06-29T09:58:31.276Z,0.73
2023-06-29T09:59:31.261Z,0.80
2023-06-29T10:00:31.236Z,0.80
2023-06-29T10:01:31.260Z,0.80
2023-06-29T10:02:31.347Z,0.82
2023-06-29T10:03:31.336Z,0.85
2023-06-29T10:04:31.521Z,0.85
2023-06-29T10:05:31.220Z,0.84
2023-06-29T10:06:31.194Z,0.78
2023-06-29T10:07:31.238Z,0.83
2023-06-29T10:08:31.458Z,0.85
2023-06-29T10:09:31.421Z,0.86
2023-06-29T10:10:31.179Z,0.91
2023-06-29T10:11:31.164Z,0.95
2023-06-29T10:12:31.154Z,0.93
2023-06-29T10:13:31.433Z,0.91
2023-06-29T10:14:31.163Z,0.91
2023-06-29T10:15:31.176Z,0.92
2023-06-29T10:16:31.176Z,1.01
2023-06-29T10:17:31.216Z,1.02
2023-06-29T10:18:31.435Z,1.01
2023-06-29T10:19:31.159Z,1.06
2023-06-29T10:20:31.158Z,1.06
2023-06-29T10:21:31.086Z,1.14
2023-06-29T10:22:31.096Z,1.21
2023-06-29T10:23:31.445Z,1.14
2023-06-29T10:24:31.071Z,1.13
2023-06-29T10:25:31.066Z,1.13
2023-06-29T10:26:31.049Z,1.13
2023-06-29T10:27:31.039Z,1.16
2023-06-29T10:28:31.039Z,1.14
2023-06-29T10:29:31.025Z,1.19
2023-06-29T10:30:31.033Z,1.16
2023-06-29T10:31:31.531Z,1.19
2023-06-29T10:32:31.020Z,1.17
2023-06-29T10:33:31.440Z,1.19
2023-06-29T10:34:31.002Z,1.18
2023-06-29T10:35:30.993Z,1.16
2023-06-29T10:36:31.035Z,1.13
2023-06-29T10:37:30.988Z,1.14
2023-06-29T10:38:30.965Z,1.11
2023-06-29T10:39:30.974Z,1.18
2023-06-29T10:40:30.949Z,1.17
2023-06-29T10:41:30.952Z,1.13
2023-06-29T10:42:30.939Z,1.08
2023-06-29T10:43:30.935Z,1.10
2023-06-29T10:44:30.929Z,1.02
2023-06-29T10:45:30.932Z,0.90
2023-06-29T10:46:31.061Z,1.05
2023-06-29T10:47:30.954Z,1.12
2023-06-29T10:48:42.794Z,1.16
2023-06-29T10:49:30.893Z,1.16
2023-06-29T10:50:30.876Z,1.17
2023-06-29T10:51:30.868Z,1.16
2023-06-29T10:52:30.916Z,1.15
2023-06-29T10:53:31.193Z,1.19
2023-06-29T10:54:31.020Z,1.23
2023-06-29T10:55:30.840Z,1.25
2023-06-29T10:56:30.837Z,1.26
2023-06-29T10:57:30.825Z,1.29
2023-06-29T10:58:30.816Z,1.35
2023-06-29T10:59:30.895Z,1.33
2023-06-29T11:00:30.810Z,1.35
2023-06-29T11:01:30.867Z,1.32
2023-06-29T11:02:30.854Z,1.27
2023-06-29T11:03:30.986Z,1.31
2023-06-29T11:04:30.811Z,1.29
2023-06-29T11:05:30.761Z,1.35
2023-06-29T11:06:34.214Z,1.41
2023-06-29T11:07:30.814Z,1.41
2023-06-29T11:08:30.997Z,1.45
2023-06-29T11:09:30.744Z,1.53
2023-06-29T11:10:30.735Z,1.64
2023-06-29T11:11:30.718Z,1.83
2023-06-29T11:12:30.712Z,1.87
2023-06-29T11:13:30.945Z,1.92
2023-06-29T11:14:30.715Z,1.93
2023-06-29T11:15:30.695Z,2.04
2023-06-29T11:16:30.774Z,2.11
2023-06-29T11:17:30.772Z,2.29
2023-06-29T11:18:30.958Z,2.32
2023-06-29T11:19:30.872Z,2.33
2023-06-29T11:20:30.920Z,2.42
2023-06-29T11:21:30.985Z,2.47
2023-06-29T11:22:31.055Z,2.48
2023-06-29T11:23:31.109Z,2.48
2023-06-29T11:24:31.205Z,2.64
2023-06-29T11:25:31.232Z,2.66
2023-06-29T11:26:31.281Z,2.65
2023-06-29T11:27:31.351Z,2.69
2023-06-29T11:28:31.405Z,2.77
2023-06-29T11:29:31.458Z,2.77
2023-06-29T11:30:31.527Z,2.77
2023-06-29T11:31:31.613Z,2.82
2023-06-29T11:32:31.664Z,2.86
2023-06-29T11:34:31.692Z,2.84
2023-06-29T11:35:31.712Z,2.86
2023-06-29T11:36:31.680Z,2.90
2023-06-29T11:37:31.678Z,2.95
2023-06-29T11:38:32.132Z,2.98
2023-06-29T11:39:31.810Z,2.98
2023-06-29T11:40:31.696Z,3.03
2023-06-29T11:41:31.646Z,3.03
2023-06-29T11:42:31.715Z,3.06
2023-06-29T11:43:32.134Z,3.06
2023-06-29T11:44:31.625Z,3.07
2023-06-29T11:45:31.631Z,3.14
2023-06-29T11:46:31.665Z,3.14
2023-06-29T11:47:33.670Z,3.12
2023-06-29T11:48:31.782Z,3.19
2023-06-29T11:49:31.600Z,3.21
2023-06-29T11:50:31.637Z,3.18
2023-06-29T11:51:31.591Z,3.12
2023-06-29T11:52:31.587Z,3.09
2023-06-29T11:53:31.987Z,3.06
2023-06-29T11:54:31.587Z,3.02
2023-06-29T11:55:31.570Z,2.99
2023-06-29T11:56:31.602Z,3.01
2023-06-29T11:57:31.555Z,2.96
2023-06-29T11:58:31.586Z,2.93
2023-06-29T11:59:31.588Z,2.97
2023-06-29T12:00:31.595Z,2.96
2023-06-29T12:01:31.552Z,3.01
2023-06-29T12:02:31.566Z,3.04
2023-06-29T12:03:31.694Z,3.01
2023-06-29T12:04:31.632Z,3.04
2023-06-29T12:05:31.606Z,3.01
2023-06-29T12:06:31.652Z,3.02
2023-06-29T12:07:32.064Z,3.07
2023-06-29T12:08:31.885Z,3.05
2023-06-29T12:09:31.817Z,3.09
2023-06-29T12:10:31.861Z,3.08
2023-06-29T12:11:31.902Z,3.14
2023-06-29T12:12:31.994Z,3.20
2023-06-29T12:13:32.008Z,3.15
2023-06-29T12:14:32.056Z,3.29
2023-06-29T12:15:32.131Z,3.30
2023-06-29T12:18:35.301Z,3.58
2023-06-29T12:19:32.349Z,3.59
2023-06-29T12:20:32.380Z,3.60
2023-06-29T12:21:32.265Z,3.65
2023-06-29T12:22:32.168Z,3.61
2023-06-29T12:23:32.115Z,3.74
2023-06-29T12:24:34.181Z,3.81
2023-06-29T12:25:32.095Z,4.00
2023-06-29T12:26:32.079Z,4.10
2023-06-29T12:27:32.096Z,3.99
2023-06-29T12:28:32.139Z,4.17
2023-06-29T12:29:32.073Z,4.13
2023-06-29T12:30:32.066Z,4.21
2023-06-29T12:31:32.055Z,4.30
2023-06-29T12:32:32.090Z,4.38
2023-06-29T12:33:32.565Z,4.32
2023-06-29T12:34:32.049Z,4.28
2023-06-29T12:35:32.030Z,4.14
2023-06-29T12:36:32.016Z,4.33
2023-06-29T12:37:32.016Z,4.32
2023-06-29T12:38:32.003Z,4.34
2023-06-29T12:39:32.544Z,4.41
2023-06-29T12:40:33.595Z,4.45
2023-06-29T12:41:31.992Z,4.46
2023-06-29T12:42:31.980Z,4.49
2023-06-29T12:43:31.969Z,4.53
2023-06-29T12:44:31.992Z,4.59
2023-06-29T12:45:31.968Z,4.76
2023-06-29T12:46:34.398Z,4.77
2023-06-29T12:47:32.109Z,4.78
2023-06-29T12:48:31.932Z,4.78
2023-06-29T12:49:32.481Z,4.83
2023-06-29T12:50:31.923Z,4.87
2023-06-29T12:51:31.935Z,4.95
2023-06-29T12:52:31.933Z,4.92
2023-06-29T12:53:31.891Z,4.85
2023-06-29T12:54:31.889Z,5.02
2023-06-29T12:55:31.885Z,5.00
2023-06-29T12:56:31.876Z,4.93
2023-06-29T12:57:31.902Z,5.08
2023-06-29T12:58:33.417Z,5.02
2023-06-29T12:59:31.862Z,5.03
2023-06-29T13:00:31.889Z,5.04
2023-06-29T13:01:31.934Z,5.04
2023-06-29T13:02:31.995Z,5.07
2023-06-29T13:03:32.029Z,5.08
2023-06-29T13:04:34.908Z,5.07
2023-06-29T13:05:31.816Z,5.08
2023-06-29T13:06:31.836Z,5.10
2023-06-29T13:07:31.878Z,5.15
2023-06-29T13:08:31.826Z,5.15
2023-06-29T13:09:31.780Z,5.29
2023-06-29T13:10:34.213Z,5.47
2023-06-29T13:11:31.772Z,5.47
2023-06-29T13:12:31.760Z,5.47
2023-06-29T13:13:31.842Z,5.47
2023-06-29T13:14:31.749Z,5.47
2023-06-29T13:15:31.754Z,5.56
2023-06-29T13:16:34.908Z,5.60
2023-06-29T13:17:31.722Z,5.61
2023-06-29T13:18:31.891Z,5.61
2023-06-29T13:19:31.706Z,5.67
2023-06-29T13:20:31.703Z,5.66
2023-06-29T13:21:31.733Z,5.88
2023-06-29T13:22:32.590Z,5.63
2023-06-29T13:23:31.736Z,5.65
2023-06-29T13:24:31.670Z,5.67
2023-06-29T13:25:31.664Z,5.74
2023-06-29T13:26:31.676Z,5.80
2023-06-29T13:27:31.647Z,5.88
2023-06-29T13:28:32.382Z,5.91
2023-06-29T13:29:31.719Z,5.92
2023-06-29T13:30:31.668Z,5.95
2023-06-29T13:31:31.683Z,5.98
2023-06-29T13:32:31.687Z,6.04
2023-06-29T13:33:31.620Z,6.05